Ararat, VA (24053)

10:06 AM EDT on April 18, 2015 (GMT -0400)
Blue Hollow Road | | Change Station
CLOSE
Current Station
Personal Weather Station
Location: Mount Airy, NC
Elevation: 1381 ft
Nearby Weather Stations

Elev 1381 ft 36.51 °N, 80.53 °W | Updated 12 minutes ago

Mostly Cloudy
Mostly Cloudy
67.6 °F
Feels Like 67.6 °F
N
2.7
Wind Variable Wind from South

Today
High -- | Low -- °F
--% Chance of Precip.
Yesterday
High -- | Low -- °F
Precip. -- in
6:44 AM 7:58 PM
Waning Crescent, 0% visible
Pressure 30.07 in
Visibility -9999.0 miles
Clouds Overcast 9000 ft
Dew Point 58 °F
Humidity 72%
Rainfall 0.00 in
Snow Depth Not available.
UV 1 out of 12
Pollen 11.00 out of 12
Air Quality Not available.
Flu Activity Local Activity
METAR KMWK 181355Z AUTO 08010G14KT OVC090 21/14 A3007 RMK AO2 T02100138 PWINO

More Conditions Fewer Conditions

Pressure 30.07 in
Visibility -9999.0 miles
Clouds Overcast 9000 ft
Dew Point 58 °F
Humidity 72%
Rainfall 0.00 in
Snow Depth Not available.
UV 1 out of 12
Pollen 11.00 out of 12
Air Quality Not available.
Flu Activity Local Activity
METAR KMWK 181355Z AUTO 08010G14KT OVC090 21/14 A3007 RMK AO2 T02100138 PWINO

More Conditions Fewer Conditions

10-Day Weather Forecast

Almanac

Astronomy

Apr. 18, 2015 Rise Set
Actual Time
Civil Twilight
Nautical Twilight
Astronomical Twilight
Moon
Length of Visible Light
Length of Day
Tomorrow will be .
, % of the Moon is Illuminated

Today's Extremes

State Highs State Lows

Community

WunderPhotos

Upload Photos

1,814,405 photos uploaded!

WunderBlogs® & News

Nearby

Air Quality

  Air Quality AQ Index Pollutant
Not available.

Snow Depth

Station Depth Elevation

Earthquake Activity

City Distance Mag. Time & Date
Minimum magnitude displayed is 2.5.

Coastal Water Temperatures

Place Temperature

Stations

Nearby Weather Stations

Station Location Temp. Windchill Dew Point Humidity Wind Precip. Elev Updated Type